sensor_id;sensor_type;location;lat;lon;timestamp;P1;durP1;ratioP1;P2;durP2;ratioP2
15126;SDS011;7664;52.008;4.748;2023-08-20T00:01:39;3.17;;;0.93;;
15126;SDS011;7664;52.008;4.748;2023-08-20T00:04:08;5.28;;;1.38;;
15126;SDS011;7664;52.008;4.748;2023-08-20T00:06:37;3.72;;;1.08;;
15126;SDS011;7664;52.008;4.748;2023-08-20T00:09:07;3.30;;;1.00;;
15126;SDS011;7664;52.008;4.748;2023-08-20T00:11:36;4.93;;;1.23;;
15126;SDS011;7664;52.008;4.748;2023-08-20T00:14:05;3.03;;;0.95;;
15126;SDS011;7664;52.008;4.748;2023-08-20T00:16:34;4.95;;;1.13;;
15126;SDS011;7664;52.008;4.748;2023-08-20T00:19:03;1.75;;;0.90;;
15126;SDS011;7664;52.008;4.748;2023-08-20T00:21:33;3.75;;;1.15;;
15126;SDS011;7664;52.008;4.748;2023-08-20T00:24:02;8.55;;;1.35;;
15126;SDS011;7664;52.008;4.748;2023-08-20T00:26:32;3.47;;;0.95;;
15126;SDS011;7664;52.008;4.748;2023-08-20T00:29:01;4.65;;;1.20;;
15126;SDS011;7664;52.008;4.748;2023-08-20T00:31:29;3.50;;;1.60;;
15126;SDS011;7664;52.008;4.748;2023-08-20T00:33:58;8.15;;;1.58;;
15126;SDS011;7664;52.008;4.748;2023-08-20T00:36:33;1.90;;;1.05;;
15126;SDS011;7664;52.008;4.748;2023-08-20T00:39:01;3.47;;;1.52;;
15126;SDS011;7664;52.008;4.748;2023-08-20T00:41:29;5.22;;;1.35;;
15126;SDS011;7664;52.008;4.748;2023-08-20T00:43:59;5.75;;;1.30;;
15126;SDS011;7664;52.008;4.748;2023-08-20T00:46:27;4.25;;;0.93;;
15126;SDS011;7664;52.008;4.748;2023-08-20T00:48:55;3.95;;;1.10;;
15126;SDS011;7664;52.008;4.748;2023-08-20T00:51:24;4.53;;;1.33;;
15126;SDS011;7664;52.008;4.748;2023-08-20T00:53:52;5.00;;;1.42;;
15126;SDS011;7664;52.008;4.748;2023-08-20T00:56:21;2.85;;;1.13;;
15126;SDS011;7664;52.008;4.748;2023-08-20T00:58:50;3.53;;;1.38;;
15126;SDS011;7664;52.008;4.748;2023-08-20T01:01:20;4.38;;;1.15;;
15126;SDS011;7664;52.008;4.748;2023-08-20T01:03:49;2.17;;;0.80;;
15126;SDS011;7664;52.008;4.748;2023-08-20T01:06:19;3.15;;;1.20;;
15126;SDS011;7664;52.008;4.748;2023-08-20T01:09:05;4.68;;;1.40;;
15126;SDS011;7664;52.008;4.748;2023-08-20T01:11:41;2.72;;;0.80;;
15126;SDS011;7664;52.008;4.748;2023-08-20T01:14:18;6.63;;;1.75;;
15126;SDS011;7664;52.008;4.748;2023-08-20T01:16:47;3.05;;;1.17;;
15126;SDS011;7664;52.008;4.748;2023-08-20T01:19:16;5.38;;;1.13;;
15126;SDS011;7664;52.008;4.748;2023-08-20T01:21:47;10.13;;;1.48;;
15126;SDS011;7664;52.008;4.748;2023-08-20T01:24:33;5.20;;;1.20;;
15126;SDS011;7664;52.008;4.748;2023-08-20T01:27:18;1.88;;;0.90;;
15126;SDS011;7664;52.008;4.748;2023-08-20T01:29:55;4.20;;;1.13;;
15126;SDS011;7664;52.008;4.748;2023-08-20T01:32:23;5.90;;;1.15;;
15126;SDS011;7664;52.008;4.748;2023-08-20T01:34:52;3.25;;;1.08;;
15126;SDS011;7664;52.008;4.748;2023-08-20T01:37:20;6.00;;;1.20;;
15126;SDS011;7664;52.008;4.748;2023-08-20T01:39:49;7.10;;;1.02;;
15126;SDS011;7664;52.008;4.748;2023-08-20T01:42:17;2.47;;;1.13;;
15126;SDS011;7664;52.008;4.748;2023-08-20T01:44:46;4.45;;;1.42;;
15126;SDS011;7664;52.008;4.748;2023-08-20T01:47:15;3.60;;;1.02;;
15126;SDS011;7664;52.008;4.748;2023-08-20T01:49:43;6.57;;;1.20;;
15126;SDS011;7664;52.008;4.748;2023-08-20T01:52:11;3.58;;;1.17;;
15126;SDS011;7664;52.008;4.748;2023-08-20T01:54:40;4.90;;;1.60;;
15126;SDS011;7664;52.008;4.748;2023-08-20T01:57:09;6.88;;;1.27;;
15126;SDS011;7664;52.008;4.748;2023-08-20T01:59:37;4.43;;;1.30;;
15126;SDS011;7664;52.008;4.748;2023-08-20T02:02:05;4.38;;;1.40;;
15126;SDS011;7664;52.008;4.748;2023-08-20T02:04:34;6.18;;;1.50;;
15126;SDS011;7664;52.008;4.748;2023-08-20T02:07:03;3.38;;;1.35;;
15126;SDS011;7664;52.008;4.748;2023-08-20T02:09:32;3.83;;;1.10;;
15126;SDS011;7664;52.008;4.748;2023-08-20T02:12:00;5.25;;;1.20;;
15126;SDS011;7664;52.008;4.748;2023-08-20T02:14:28;4.10;;;1.17;;
15126;SDS011;7664;52.008;4.748;2023-08-20T02:16:56;4.22;;;1.48;;
15126;SDS011;7664;52.008;4.748;2023-08-20T02:19:24;4.03;;;1.33;;
15126;SDS011;7664;52.008;4.748;2023-08-20T02:21:53;3.88;;;1.25;;
15126;SDS011;7664;52.008;4.748;2023-08-20T02:24:22;3.58;;;1.40;;
15126;SDS011;7664;52.008;4.748;2023-08-20T02:26:50;4.40;;;1.50;;
15126;SDS011;7664;52.008;4.748;2023-08-20T02:29:18;5.97;;;1.27;;
15126;SDS011;7664;52.008;4.748;2023-08-20T02:31:46;5.50;;;1.48;;
15126;SDS011;7664;52.008;4.748;2023-08-20T02:34:15;4.80;;;1.63;;
15126;SDS011;7664;52.008;4.748;2023-08-20T02:36:45;4.93;;;1.40;;
15126;SDS011;7664;52.008;4.748;2023-08-20T02:39:16;2.70;;;1.35;;
15126;SDS011;7664;52.008;4.748;2023-08-20T02:41:44;4.00;;;1.33;;
15126;SDS011;7664;52.008;4.748;2023-08-20T02:44:12;3.90;;;1.23;;
15126;SDS011;7664;52.008;4.748;2023-08-20T02:46:40;4.30;;;1.40;;
15126;SDS011;7664;52.008;4.748;2023-08-20T02:49:11;6.07;;;1.67;;
15126;SDS011;7664;52.008;4.748;2023-08-20T02:51:42;4.45;;;1.40;;
15126;SDS011;7664;52.008;4.748;2023-08-20T02:54:10;3.38;;;1.17;;
15126;SDS011;7664;52.008;4.748;2023-08-20T02:56:40;1.90;;;1.13;;
15126;SDS011;7664;52.008;4.748;2023-08-20T02:59:08;2.83;;;1.30;;
15126;SDS011;7664;52.008;4.748;2023-08-20T03:01:36;2.88;;;0.88;;
15126;SDS011;7664;52.008;4.748;2023-08-20T03:04:05;1.52;;;0.98;;
15126;SDS011;7664;52.008;4.748;2023-08-20T03:06:33;2.60;;;1.30;;
15126;SDS011;7664;52.008;4.748;2023-08-20T03:09:01;2.83;;;1.30;;
15126;SDS011;7664;52.008;4.748;2023-08-20T03:11:30;4.38;;;1.35;;
15126;SDS011;7664;52.008;4.748;2023-08-20T03:14:00;2.78;;;1.02;;
15126;SDS011;7664;52.008;4.748;2023-08-20T03:16:28;2.72;;;1.05;;
15126;SDS011;7664;52.008;4.748;2023-08-20T03:18:56;3.80;;;1.23;;
15126;SDS011;7664;52.008;4.748;2023-08-20T03:21:24;1.67;;;1.17;;
15126;SDS011;7664;52.008;4.748;2023-08-20T03:23:52;3.85;;;1.20;;
15126;SDS011;7664;52.008;4.748;2023-08-20T03:26:20;7.35;;;1.50;;
15126;SDS011;7664;52.008;4.748;2023-08-20T03:28:48;5.30;;;0.85;;
15126;SDS011;7664;52.008;4.748;2023-08-20T03:31:18;4.68;;;1.40;;
15126;SDS011;7664;52.008;4.748;2023-08-20T03:33:46;3.22;;;0.80;;
15126;SDS011;7664;52.008;4.748;2023-08-20T03:36:16;1.95;;;1.00;;
15126;SDS011;7664;52.008;4.748;2023-08-20T03:38:44;4.10;;;1.25;;
15126;SDS011;7664;52.008;4.748;2023-08-20T03:41:12;4.55;;;1.17;;
15126;SDS011;7664;52.008;4.748;2023-08-20T03:43:40;3.65;;;1.35;;
15126;SDS011;7664;52.008;4.748;2023-08-20T03:46:09;5.93;;;1.42;;
15126;SDS011;7664;52.008;4.748;2023-08-20T03:48:39;4.40;;;1.40;;
15126;SDS011;7664;52.008;4.748;2023-08-20T03:51:07;3.78;;;1.40;;
15126;SDS011;7664;52.008;4.748;2023-08-20T03:53:35;5.05;;;1.50;;
15126;SDS011;7664;52.008;4.748;2023-08-20T03:56:03;2.67;;;1.33;;
15126;SDS011;7664;52.008;4.748;2023-08-20T03:58:35;3.45;;;1.50;;
15126;SDS011;7664;52.008;4.748;2023-08-20T04:01:04;4.22;;;1.40;;
15126;SDS011;7664;52.008;4.748;2023-08-20T04:03:32;4.03;;;1.13;;
15126;SDS011;7664;52.008;4.748;2023-08-20T04:06:02;3.03;;;1.38;;
15126;SDS011;7664;52.008;4.748;2023-08-20T04:08:30;4.35;;;1.52;;
15126;SDS011;7664;52.008;4.748;2023-08-20T04:10:58;7.25;;;1.75;;
15126;SDS011;7664;52.008;4.748;2023-08-20T04:13:27;2.90;;;1.02;;
15126;SDS011;7664;52.008;4.748;2023-08-20T04:15:55;3.05;;;1.17;;
15126;SDS011;7664;52.008;4.748;2023-08-20T04:18:23;3.10;;;1.10;;
15126;SDS011;7664;52.008;4.748;2023-08-20T04:20:53;3.88;;;1.30;;
15126;SDS011;7664;52.008;4.748;2023-08-20T04:23:23;2.75;;;1.20;;
15126;SDS011;7664;52.008;4.748;2023-08-20T04:25:52;4.15;;;1.48;;
15126;SDS011;7664;52.008;4.748;2023-08-20T04:28:20;5.13;;;1.30;;
15126;SDS011;7664;52.008;4.748;2023-08-20T04:30:48;1.92;;;1.25;;
15126;SDS011;7664;52.008;4.748;2023-08-20T04:33:22;2.80;;;1.50;;
15126;SDS011;7664;52.008;4.748;2023-08-20T04:35:51;2.90;;;1.25;;
15126;SDS011;7664;52.008;4.748;2023-08-20T04:38:19;4.95;;;1.42;;
15126;SDS011;7664;52.008;4.748;2023-08-20T04:40:49;4.28;;;1.30;;
15126;SDS011;7664;52.008;4.748;2023-08-20T04:43:17;1.77;;;1.10;;
15126;SDS011;7664;52.008;4.748;2023-08-20T04:45:45;3.28;;;1.13;;
15126;SDS011;7664;52.008;4.748;2023-08-20T04:48:13;5.53;;;1.35;;
15126;SDS011;7664;52.008;4.748;2023-08-20T04:50:41;2.15;;;1.30;;
15126;SDS011;7664;52.008;4.748;2023-08-20T04:53:09;3.58;;;1.50;;
15126;SDS011;7664;52.008;4.748;2023-08-20T04:55:37;3.75;;;1.50;;
15126;SDS011;7664;52.008;4.748;2023-08-20T04:58:08;3.85;;;1.30;;
15126;SDS011;7664;52.008;4.748;2023-08-20T05:00:36;2.60;;;1.20;;
15126;SDS011;7664;52.008;4.748;2023-08-20T05:03:08;6.13;;;1.60;;
15126;SDS011;7664;52.008;4.748;2023-08-20T05:05:37;4.72;;;1.50;;
15126;SDS011;7664;52.008;4.748;2023-08-20T05:08:05;2.97;;;1.15;;
15126;SDS011;7664;52.008;4.748;2023-08-20T05:10:35;1.58;;;0.90;;
15126;SDS011;7664;52.008;4.748;2023-08-20T05:13:04;3.58;;;1.30;;
15126;SDS011;7664;52.008;4.748;2023-08-20T05:15:34;4.00;;;1.65;;
15126;SDS011;7664;52.008;4.748;2023-08-20T05:18:03;4.00;;;1.92;;
15126;SDS011;7664;52.008;4.748;2023-08-20T05:20:32;5.75;;;1.63;;
15126;SDS011;7664;52.008;4.748;2023-08-20T05:23:00;4.65;;;1.45;;
15126;SDS011;7664;52.008;4.748;2023-08-20T05:25:28;2.40;;;1.20;;
15126;SDS011;7664;52.008;4.748;2023-08-20T05:27:56;5.00;;;1.48;;
15126;SDS011;7664;52.008;4.748;2023-08-20T05:30:26;2.60;;;1.35;;
15126;SDS011;7664;52.008;4.748;2023-08-20T05:32:56;4.70;;;1.70;;
15126;SDS011;7664;52.008;4.748;2023-08-20T05:35:26;3.17;;;1.15;;
15126;SDS011;7664;52.008;4.748;2023-08-20T05:37:54;4.57;;;1.45;;
15126;SDS011;7664;52.008;4.748;2023-08-20T05:40:23;7.45;;;1.42;;
15126;SDS011;7664;52.008;4.748;2023-08-20T05:42:51;3.22;;;1.20;;
15126;SDS011;7664;52.008;4.748;2023-08-20T05:45:19;4.75;;;1.52;;
15126;SDS011;7664;52.008;4.748;2023-08-20T05:47:48;5.07;;;1.63;;
15126;SDS011;7664;52.008;4.748;2023-08-20T05:50:18;4.70;;;1.77;;
15126;SDS011;7664;52.008;4.748;2023-08-20T05:52:46;3.00;;;1.45;;
15126;SDS011;7664;52.008;4.748;2023-08-20T05:55:15;4.93;;;1.65;;
15126;SDS011;7664;52.008;4.748;2023-08-20T05:57:46;3.55;;;1.88;;
15126;SDS011;7664;52.008;4.748;2023-08-20T06:00:14;3.58;;;1.67;;
15126;SDS011;7664;52.008;4.748;2023-08-20T06:02:46;5.55;;;2.28;;
15126;SDS011;7664;52.008;4.748;2023-08-20T06:05:15;7.57;;;2.05;;
15126;SDS011;7664;52.008;4.748;2023-08-20T06:07:45;4.03;;;1.45;;
15126;SDS011;7664;52.008;4.748;2023-08-20T06:10:13;6.45;;;1.70;;
15126;SDS011;7664;52.008;4.748;2023-08-20T06:12:41;5.07;;;1.60;;
15126;SDS011;7664;52.008;4.748;2023-08-20T06:15:09;6.63;;;2.00;;
15126;SDS011;7664;52.008;4.748;2023-08-20T06:17:37;6.22;;;1.38;;
15126;SDS011;7664;52.008;4.748;2023-08-20T06:20:06;6.47;;;1.92;;
15126;SDS011;7664;52.008;4.748;2023-08-20T06:22:38;4.32;;;1.02;;
15126;SDS011;7664;52.008;4.748;2023-08-20T06:25:07;2.72;;;1.08;;
15126;SDS011;7664;52.008;4.748;2023-08-20T06:27:35;3.75;;;1.17;;
15126;SDS011;7664;52.008;4.748;2023-08-20T06:30:04;6.00;;;1.42;;
15126;SDS011;7664;52.008;4.748;2023-08-20T06:32:33;6.43;;;1.33;;
15126;SDS011;7664;52.008;4.748;2023-08-20T06:35:01;3.72;;;1.50;;
15126;SDS011;7664;52.008;4.748;2023-08-20T06:37:30;4.50;;;1.20;;
15126;SDS011;7664;52.008;4.748;2023-08-20T06:40:00;5.55;;;1.52;;
15126;SDS011;7664;52.008;4.748;2023-08-20T06:42:28;3.30;;;1.52;;
15126;SDS011;7664;52.008;4.748;2023-08-20T06:44:56;4.63;;;1.58;;
15126;SDS011;7664;52.008;4.748;2023-08-20T06:47:24;5.38;;;1.40;;
15126;SDS011;7664;52.008;4.748;2023-08-20T06:49:52;3.03;;;1.10;;
15126;SDS011;7664;52.008;4.748;2023-08-20T06:52:20;4.45;;;1.42;;
15126;SDS011;7664;52.008;4.748;2023-08-20T06:54:48;5.90;;;1.35;;
15126;SDS011;7664;52.008;4.748;2023-08-20T06:57:18;7.43;;;1.67;;
15126;SDS011;7664;52.008;4.748;2023-08-20T06:59:46;5.63;;;1.30;;
15126;SDS011;7664;52.008;4.748;2023-08-20T07:02:14;6.43;;;1.40;;
15126;SDS011;7664;52.008;4.748;2023-08-20T07:04:42;4.40;;;1.27;;
15126;SDS011;7664;52.008;4.748;2023-08-20T07:07:10;4.35;;;0.90;;
15126;SDS011;7664;52.008;4.748;2023-08-20T07:09:39;5.00;;;1.27;;
15126;SDS011;7664;52.008;4.748;2023-08-20T07:12:07;3.20;;;1.00;;
15126;SDS011;7664;52.008;4.748;2023-08-20T07:14:37;3.85;;;1.00;;
15126;SDS011;7664;52.008;4.748;2023-08-20T07:17:05;6.25;;;1.10;;
15126;SDS011;7664;52.008;4.748;2023-08-20T07:19:33;8.05;;;1.30;;
15126;SDS011;7664;52.008;4.748;2023-08-20T07:22:01;4.40;;;1.17;;
15126;SDS011;7664;52.008;4.748;2023-08-20T07:24:29;3.83;;;0.73;;
15126;SDS011;7664;52.008;4.748;2023-08-20T07:27:01;3.20;;;0.98;;
15126;SDS011;7664;52.008;4.748;2023-08-20T07:29:30;3.67;;;1.13;;
15126;SDS011;7664;52.008;4.748;2023-08-20T07:32:00;3.55;;;1.02;;
15126;SDS011;7664;52.008;4.748;2023-08-20T07:34:29;3.88;;;1.27;;
15126;SDS011;7664;52.008;4.748;2023-08-20T07:36:59;4.05;;;1.25;;
15126;SDS011;7664;52.008;4.748;2023-08-20T07:39:29;4.05;;;1.55;;
15126;SDS011;7664;52.008;4.748;2023-08-20T07:41:57;4.25;;;1.10;;
15126;SDS011;7664;52.008;4.748;2023-08-20T07:44:25;5.60;;;1.48;;
15126;SDS011;7664;52.008;4.748;2023-08-20T07:46:54;3.38;;;1.02;;
15126;SDS011;7664;52.008;4.748;2023-08-20T07:49:23;4.53;;;1.05;;
15126;SDS011;7664;52.008;4.748;2023-08-20T07:51:51;4.53;;;1.13;;
15126;SDS011;7664;52.008;4.748;2023-08-20T07:54:20;4.88;;;1.15;;
15126;SDS011;7664;52.008;4.748;2023-08-20T07:56:48;4.20;;;0.75;;
15126;SDS011;7664;52.008;4.748;2023-08-20T07:59:17;4.50;;;1.10;;
15126;SDS011;7664;52.008;4.748;2023-08-20T08:01:45;4.47;;;0.80;;
15126;SDS011;7664;52.008;4.748;2023-08-20T08:04:13;3.53;;;0.90;;
15126;SDS011;7664;52.008;4.748;2023-08-20T08:06:42;5.28;;;1.00;;
15126;SDS011;7664;52.008;4.748;2023-08-20T08:09:20;2.80;;;1.13;;
15126;SDS011;7664;52.008;4.748;2023-08-20T08:11:49;3.83;;;0.80;;
15126;SDS011;7664;52.008;4.748;2023-08-20T08:14:17;3.80;;;1.00;;
15126;SDS011;7664;52.008;4.748;2023-08-20T08:16:46;3.13;;;0.65;;
15126;SDS011;7664;52.008;4.748;2023-08-20T08:19:14;2.25;;;0.80;;
15126;SDS011;7664;52.008;4.748;2023-08-20T08:21:44;2.15;;;0.80;;
15126;SDS011;7664;52.008;4.748;2023-08-20T08:24:12;1.98;;;0.47;;
15126;SDS011;7664;52.008;4.748;2023-08-20T08:26:41;2.47;;;0.80;;
15126;SDS011;7664;52.008;4.748;2023-08-20T08:29:09;3.53;;;0.70;;
15126;SDS011;7664;52.008;4.748;2023-08-20T08:31:38;2.58;;;0.70;;
15126;SDS011;7664;52.008;4.748;2023-08-20T08:34:06;5.40;;;0.82;;
15126;SDS011;7664;52.008;4.748;2023-08-20T08:36:34;3.25;;;0.70;;
15126;SDS011;7664;52.008;4.748;2023-08-20T08:39:05;3.50;;;0.70;;
15126;SDS011;7664;52.008;4.748;2023-08-20T08:41:35;3.58;;;0.73;;
15126;SDS011;7664;52.008;4.748;2023-08-20T08:44:06;2.55;;;0.77;;
15126;SDS011;7664;52.008;4.748;2023-08-20T08:46:36;2.30;;;0.70;;
15126;SDS011;7664;52.008;4.748;2023-08-20T08:49:06;3.53;;;0.85;;
15126;SDS011;7664;52.008;4.748;2023-08-20T08:51:35;6.32;;;1.05;;
15126;SDS011;7664;52.008;4.748;2023-08-20T08:54:05;4.70;;;0.85;;
15126;SDS011;7664;52.008;4.748;2023-08-20T08:56:35;2.78;;;0.70;;
15126;SDS011;7664;52.008;4.748;2023-08-20T08:59:04;5.25;;;1.10;;
15126;SDS011;7664;52.008;4.748;2023-08-20T09:01:32;4.40;;;0.75;;
15126;SDS011;7664;52.008;4.748;2023-08-20T09:04:04;3.75;;;0.73;;
15126;SDS011;7664;52.008;4.748;2023-08-20T09:06:44;3.75;;;0.93;;
15126;SDS011;7664;52.008;4.748;2023-08-20T09:09:14;2.33;;;0.73;;
15126;SDS011;7664;52.008;4.748;2023-08-20T09:11:43;2.85;;;0.80;;
15126;SDS011;7664;52.008;4.748;2023-08-20T09:14:20;2.95;;;0.80;;
15126;SDS011;7664;52.008;4.748;2023-08-20T09:16:53;2.55;;;0.90;;
15126;SDS011;7664;52.008;4.748;2023-08-20T09:19:25;5.63;;;1.02;;
15126;SDS011;7664;52.008;4.748;2023-08-20T09:21:59;3.00;;;0.70;;
15126;SDS011;7664;52.008;4.748;2023-08-20T09:24:33;2.28;;;0.55;;
15126;SDS011;7664;52.008;4.748;2023-08-20T09:27:03;3.45;;;0.80;;
15126;SDS011;7664;52.008;4.748;2023-08-20T09:29:32;3.05;;;0.73;;
15126;SDS011;7664;52.008;4.748;2023-08-20T09:32:01;3.53;;;0.68;;
15126;SDS011;7664;52.008;4.748;2023-08-20T09:34:36;4.38;;;0.82;;
15126;SDS011;7664;52.008;4.748;2023-08-20T09:37:09;3.67;;;0.80;;
15126;SDS011;7664;52.008;4.748;2023-08-20T09:39:38;2.97;;;0.85;;
15126;SDS011;7664;52.008;4.748;2023-08-20T09:42:07;2.47;;;0.77;;
15126;SDS011;7664;52.008;4.748;2023-08-20T09:44:37;3.85;;;0.80;;
15126;SDS011;7664;52.008;4.748;2023-08-20T09:47:07;2.03;;;0.60;;
15126;SDS011;7664;52.008;4.748;2023-08-20T09:49:37;1.23;;;0.47;;
15126;SDS011;7664;52.008;4.748;2023-08-20T09:52:06;1.80;;;0.40;;
15126;SDS011;7664;52.008;4.748;2023-08-20T09:54:42;3.40;;;0.60;;
15126;SDS011;7664;52.008;4.748;2023-08-20T09:57:21;3.85;;;0.93;;
15126;SDS011;7664;52.008;4.748;2023-08-20T09:59:55;3.90;;;0.73;;
15126;SDS011;7664;52.008;4.748;2023-08-20T10:02:24;2.97;;;0.70;;
15126;SDS011;7664;52.008;4.748;2023-08-20T10:04:53;3.15;;;0.70;;
15126;SDS011;7664;52.008;4.748;2023-08-20T10:07:21;4.35;;;0.90;;
15126;SDS011;7664;52.008;4.748;2023-08-20T10:09:53;4.72;;;0.77;;
15126;SDS011;7664;52.008;4.748;2023-08-20T10:12:24;2.60;;;0.60;;
15126;SDS011;7664;52.008;4.748;2023-08-20T10:14:52;2.03;;;0.68;;
15126;SDS011;7664;52.008;4.748;2023-08-20T10:17:21;2.90;;;0.60;;
15126;SDS011;7664;52.008;4.748;2023-08-20T10:19:50;2.47;;;0.60;;
15126;SDS011;7664;52.008;4.748;2023-08-20T10:22:19;3.05;;;0.77;;
15126;SDS011;7664;52.008;4.748;2023-08-20T10:24:47;3.95;;;0.68;;
15126;SDS011;7664;52.008;4.748;2023-08-20T10:27:27;1.65;;;0.60;;
15126;SDS011;7664;52.008;4.748;2023-08-20T10:29:59;3.67;;;0.93;;
15126;SDS011;7664;52.008;4.748;2023-08-20T10:35:18;1.80;;;0.50;;
15126;SDS011;7664;52.008;4.748;2023-08-20T10:38:03;1.95;;;0.70;;
15126;SDS011;7664;52.008;4.748;2023-08-20T10:40:52;3.30;;;0.80;;
15126;SDS011;7664;52.008;4.748;2023-08-20T10:43:30;1.58;;;0.47;;
15126;SDS011;7664;52.008;4.748;2023-08-20T10:46:02;2.58;;;0.60;;
15126;SDS011;7664;52.008;4.748;2023-08-20T10:48:35;3.67;;;0.47;;
15126;SDS011;7664;52.008;4.748;2023-08-20T10:51:12;4.25;;;0.88;;
15126;SDS011;7664;52.008;4.748;2023-08-20T10:53:42;2.63;;;0.90;;
15126;SDS011;7664;52.008;4.748;2023-08-20T10:56:11;3.95;;;0.88;;
15126;SDS011;7664;52.008;4.748;2023-08-20T10:58:49;1.75;;;0.68;;
15126;SDS011;7664;52.008;4.748;2023-08-20T11:01:19;1.00;;;0.30;;
15126;SDS011;7664;52.008;4.748;2023-08-20T11:03:48;1.83;;;0.80;;
15126;SDS011;7664;52.008;4.748;2023-08-20T11:06:17;2.92;;;0.73;;
15126;SDS011;7664;52.008;4.748;2023-08-20T11:08:46;4.13;;;0.65;;
15126;SDS011;7664;52.008;4.748;2023-08-20T11:11:14;1.77;;;0.50;;
15126;SDS011;7664;52.008;4.748;2023-08-20T11:13:46;2.95;;;0.80;;
15126;SDS011;7664;52.008;4.748;2023-08-20T11:16:14;1.42;;;0.52;;
15126;SDS011;7664;52.008;4.748;2023-08-20T11:18:42;4.30;;;0.98;;
15126;SDS011;7664;52.008;4.748;2023-08-20T11:21:10;2.83;;;0.88;;
15126;SDS011;7664;52.008;4.748;2023-08-20T11:23:40;4.60;;;0.90;;
15126;SDS011;7664;52.008;4.748;2023-08-20T11:26:09;1.50;;;0.60;;
15126;SDS011;7664;52.008;4.748;2023-08-20T11:28:38;4.07;;;0.55;;
15126;SDS011;7664;52.008;4.748;2023-08-20T11:31:07;1.33;;;0.65;;
15126;SDS011;7664;52.008;4.748;2023-08-20T11:33:35;5.82;;;0.90;;
15126;SDS011;7664;52.008;4.748;2023-08-20T11:36:04;3.00;;;0.70;;
15126;SDS011;7664;52.008;4.748;2023-08-20T11:38:34;3.33;;;1.08;;
15126;SDS011;7664;52.008;4.748;2023-08-20T11:41:02;4.13;;;1.10;;
15126;SDS011;7664;52.008;4.748;2023-08-20T11:43:30;2.08;;;0.57;;
15126;SDS011;7664;52.008;4.748;2023-08-20T11:45:58;2.20;;;0.50;;
15126;SDS011;7664;52.008;4.748;2023-08-20T11:48:27;1.45;;;0.82;;
15126;SDS011;7664;52.008;4.748;2023-08-20T11:50:57;3.45;;;1.25;;
15126;SDS011;7664;52.008;4.748;2023-08-20T11:53:28;3.40;;;0.70;;
15126;SDS011;7664;52.008;4.748;2023-08-20T11:55:56;4.32;;;1.05;;
15126;SDS011;7664;52.008;4.748;2023-08-20T11:58:24;5.32;;;0.80;;
15126;SDS011;7664;52.008;4.748;2023-08-20T12:00:52;3.60;;;0.80;;
15126;SDS011;7664;52.008;4.748;2023-08-20T12:03:20;4.15;;;0.70;;
15126;SDS011;7664;52.008;4.748;2023-08-20T12:05:50;5.20;;;0.80;;
15126;SDS011;7664;52.008;4.748;2023-08-20T12:08:18;2.05;;;0.52;;
15126;SDS011;7664;52.008;4.748;2023-08-20T12:10:46;3.45;;;0.75;;
15126;SDS011;7664;52.008;4.748;2023-08-20T12:13:14;3.22;;;0.63;;
15126;SDS011;7664;52.008;4.748;2023-08-20T12:15:43;1.45;;;0.55;;
15126;SDS011;7664;52.008;4.748;2023-08-20T12:18:11;1.92;;;0.57;;
15126;SDS011;7664;52.008;4.748;2023-08-20T12:20:39;4.28;;;1.00;;
15126;SDS011;7664;52.008;4.748;2023-08-20T12:23:08;3.15;;;0.73;;
15126;SDS011;7664;52.008;4.748;2023-08-20T12:25:36;1.83;;;0.60;;
15126;SDS011;7664;52.008;4.748;2023-08-20T12:28:04;2.20;;;0.73;;
15126;SDS011;7664;52.008;4.748;2023-08-20T12:30:34;4.07;;;0.68;;
15126;SDS011;7664;52.008;4.748;2023-08-20T12:33:05;2.88;;;0.55;;
15126;SDS011;7664;52.008;4.748;2023-08-20T12:35:34;0.70;;;0.68;;
15126;SDS011;7664;52.008;4.748;2023-08-20T12:38:02;1.77;;;0.60;;
15126;SDS011;7664;52.008;4.748;2023-08-20T12:40:33;2.92;;;0.85;;
15126;SDS011;7664;52.008;4.748;2023-08-20T12:43:00;2.00;;;0.47;;
15126;SDS011;7664;52.008;4.748;2023-08-20T12:45:29;2.22;;;0.68;;
15126;SDS011;7664;52.008;4.748;2023-08-20T12:47:57;2.95;;;1.00;;
15126;SDS011;7664;52.008;4.748;2023-08-20T12:50:28;2.50;;;0.70;;
15126;SDS011;7664;52.008;4.748;2023-08-20T12:52:56;3.53;;;1.02;;
15126;SDS011;7664;52.008;4.748;2023-08-20T12:55:24;3.40;;;0.70;;
15126;SDS011;7664;52.008;4.748;2023-08-20T12:57:56;4.28;;;0.60;;
15126;SDS011;7664;52.008;4.748;2023-08-20T13:00:26;2.00;;;0.70;;
15126;SDS011;7664;52.008;4.748;2023-08-20T13:02:55;3.95;;;0.65;;
15126;SDS011;7664;52.008;4.748;2023-08-20T13:05:24;2.70;;;0.60;;
15126;SDS011;7664;52.008;4.748;2023-08-20T13:07:53;3.53;;;0.80;;
15126;SDS011;7664;52.008;4.748;2023-08-20T13:10:22;4.00;;;0.60;;
15126;SDS011;7664;52.008;4.748;2023-08-20T13:12:51;2.03;;;0.70;;
15126;SDS011;7664;52.008;4.748;2023-08-20T13:15:22;4.72;;;0.73;;
15126;SDS011;7664;52.008;4.748;2023-08-20T13:17:52;2.65;;;0.55;;
15126;SDS011;7664;52.008;4.748;2023-08-20T13:20:22;3.67;;;0.82;;
15126;SDS011;7664;52.008;4.748;2023-08-20T13:22:53;4.82;;;1.00;;
15126;SDS011;7664;52.008;4.748;2023-08-20T13:25:22;2.97;;;0.60;;
15126;SDS011;7664;52.008;4.748;2023-08-20T13:27:50;3.63;;;0.95;;
15126;SDS011;7664;52.008;4.748;2023-08-20T13:30:18;3.05;;;0.70;;
15126;SDS011;7664;52.008;4.748;2023-08-20T13:32:48;1.35;;;0.43;;
15126;SDS011;7664;52.008;4.748;2023-08-20T13:35:17;1.10;;;0.50;;
15126;SDS011;7664;52.008;4.748;2023-08-20T13:37:45;3.08;;;0.75;;
15126;SDS011;7664;52.008;4.748;2023-08-20T13:40:13;3.70;;;0.88;;
15126;SDS011;7664;52.008;4.748;2023-08-20T13:42:41;2.53;;;0.40;;
15126;SDS011;7664;52.008;4.748;2023-08-20T13:45:09;4.40;;;0.77;;
15126;SDS011;7664;52.008;4.748;2023-08-20T13:47:37;3.10;;;0.70;;
15126;SDS011;7664;52.008;4.748;2023-08-20T13:50:08;1.42;;;0.60;;
15126;SDS011;7664;52.008;4.748;2023-08-20T13:52:36;3.35;;;0.93;;
15126;SDS011;7664;52.008;4.748;2023-08-20T13:55:05;1.65;;;0.45;;
15126;SDS011;7664;52.008;4.748;2023-08-20T13:57:34;4.82;;;0.85;;
15126;SDS011;7664;52.008;4.748;2023-08-20T14:00:03;3.15;;;0.70;;
15126;SDS011;7664;52.008;4.748;2023-08-20T14:02:37;3.30;;;0.57;;
15126;SDS011;7664;52.008;4.748;2023-08-20T14:05:07;5.05;;;1.15;;
15126;SDS011;7664;52.008;4.748;2023-08-20T14:07:36;3.70;;;0.98;;
15126;SDS011;7664;52.008;4.748;2023-08-20T14:10:05;4.25;;;0.80;;
15126;SDS011;7664;52.008;4.748;2023-08-20T14:12:34;4.22;;;0.93;;
15126;SDS011;7664;52.008;4.748;2023-08-20T14:15:06;1.67;;;0.70;;
15126;SDS011;7664;52.008;4.748;2023-08-20T14:17:35;2.60;;;0.80;;
15126;SDS011;7664;52.008;4.748;2023-08-20T14:20:04;5.85;;;1.10;;
15126;SDS011;7664;52.008;4.748;2023-08-20T14:22:37;6.47;;;2.90;;
15126;SDS011;7664;52.008;4.748;2023-08-20T14:25:06;3.55;;;1.20;;
15126;SDS011;7664;52.008;4.748;2023-08-20T14:27:36;4.95;;;1.08;;
15126;SDS011;7664;52.008;4.748;2023-08-20T14:30:06;5.63;;;1.73;;
15126;SDS011;7664;52.008;4.748;2023-08-20T14:32:37;4.97;;;1.20;;
15126;SDS011;7664;52.008;4.748;2023-08-20T14:35:08;2.08;;;0.70;;
15126;SDS011;7664;52.008;4.748;2023-08-20T14:37:37;4.47;;;1.08;;
15126;SDS011;7664;52.008;4.748;2023-08-20T14:40:05;4.18;;;1.20;;
15126;SDS011;7664;52.008;4.748;2023-08-20T14:42:36;5.57;;;2.53;;
15126;SDS011;7664;52.008;4.748;2023-08-20T14:45:05;5.32;;;1.30;;
15126;SDS011;7664;52.008;4.748;2023-08-20T14:47:34;4.90;;;1.20;;
15126;SDS011;7664;52.008;4.748;2023-08-20T14:50:03;3.08;;;1.17;;
15126;SDS011;7664;52.008;4.748;2023-08-20T14:52:36;1.38;;;0.63;;
15126;SDS011;7664;52.008;4.748;2023-08-20T14:55:05;6.75;;;2.97;;
15126;SDS011;7664;52.008;4.748;2023-08-20T14:57:36;4.93;;;1.77;;
15126;SDS011;7664;52.008;4.748;2023-08-20T15:00:17;4.60;;;1.30;;
15126;SDS011;7664;52.008;4.748;2023-08-20T15:02:46;3.92;;;1.13;;
15126;SDS011;7664;52.008;4.748;2023-08-20T15:05:14;6.15;;;1.05;;
15126;SDS011;7664;52.008;4.748;2023-08-20T15:07:44;1.85;;;0.70;;
15126;SDS011;7664;52.008;4.748;2023-08-20T15:10:12;4.57;;;1.17;;
15126;SDS011;7664;52.008;4.748;2023-08-20T15:12:40;1.38;;;0.60;;
15126;SDS011;7664;52.008;4.748;2023-08-20T15:15:08;5.63;;;1.70;;
15126;SDS011;7664;52.008;4.748;2023-08-20T15:17:37;5.95;;;1.80;;